Terminal Aerodrome Forecast
Issued by NWS

Home | Current Version | Previous Version | Text Only | Print | Product List | Glossary On
Versions: 1 2 3 4 5 6 7 8 9 10 11 12 13 14 15
000
FTUS46 KPDT 062337 AAA
TAFBDN
TAF AMD
KBDN 062337Z 0700/0724 30010KT P6SM VCSH BKN060 BKN090
      TEMPO 0700/0702 5SM -TSRA BKN030CB BKN050
     FM070800 30007KT P6SM VCSH SCT050 OVC070
     FM071800 36015G25KT P6SM BKN100=

USA.gov is the U.S. government's official web portal to all federal, state and local government web resources and services.